Time;durP1;ratioP1;P1;durP2;ratioP2;P2;SDS_P1;SDS_P2;PMS_P1;PMS_P2;Temp;Humidity;BMP_temperature;BMP_pressure;BME280_temperature;BME280_humidity;BME280_pressure;Samples;Min_cycle;Max_cycle;Signal;HPM_P1;HPM_P2
2021/04/06 00:00:43;;;;;;;14.45;2.25;;;3.10;99.90;;;;;;5020764;28;20053;-84
2021/04/06 00:03:15;;;;;;;12.93;1.73;;;3.10;99.90;;;;;;5022381;28;20072;-84
2021/04/06 00:05:46;;;;;;;15.45;2.22;;;3.10;99.90;;;;;;5023958;28;20506;-84
2021/04/06 00:08:14;;;;;;;16.13;2.20;;;3.00;99.90;;;;;;5031515;28;20052;-84
2021/04/06 00:10:48;;;;;;;13.07;1.75;;;3.00;99.90;;;;;;5033508;28;20132;-84
2021/04/06 00:13:16;;;;;;;17.70;1.83;;;3.00;99.90;;;;;;5026440;28;20060;-84
2021/04/06 00:15:45;;;;;;;10.95;1.98;;;2.90;99.90;;;;;;5043482;28;20073;-83
2021/04/06 00:18:16;;;;;;;14.23;1.73;;;2.90;99.90;;;;;;5024557;28;20064;-84
2021/04/06 00:20:43;;;;;;;13.32;1.75;;;2.80;99.90;;;;;;5040284;28;20523;-84
2021/04/06 00:23:11;;;;;;;15.20;2.03;;;2.80;99.90;;;;;;5029303;28;20053;-83
2021/04/06 00:25:46;;;;;;;14.13;2.00;;;2.80;99.90;;;;;;5031351;28;20101;-83
2021/04/06 00:28:21;;;;;;;14.18;3.08;;;2.90;99.90;;;;;;5024183;28;20060;-83
2021/04/06 00:30:52;;;;;;;11.02;1.80;;;3.00;99.90;;;;;;5021315;28;20064;-84
2021/04/06 00:33:41;;;;;;;20.35;2.78;;;3.00;99.90;;;;;;5001383;28;20469;-83
2021/04/06 00:36:07;;;;;;;11.55;1.98;;;3.10;99.90;;;;;;5024675;28;20048;-84
2021/04/06 00:38:40;;;;;;;11.68;2.42;;;3.20;99.90;;;;;;5018668;28;20069;-84
2021/04/06 00:41:12;;;;;;;9.65;2.83;;;3.30;99.90;;;;;;5024003;28;20049;-84
2021/04/06 00:43:43;;;;;;;13.02;1.80;;;3.30;99.90;;;;;;5023755;28;20136;-84
2021/04/06 00:46:13;;;;;;;19.88;3.45;;;3.30;99.90;;;;;;5025982;28;20063;-84
2021/04/06 00:48:43;;;;;;;15.75;2.50;;;3.30;99.90;;;;;;5022436;28;20403;-84
2021/04/06 00:51:12;;;;;;;16.38;1.60;;;3.40;99.90;;;;;;5020781;28;20495;-84
2021/04/06 00:53:59;;;;;;;12.23;1.70;;;3.30;99.90;;;;;;5021683;28;20152;-83
2021/04/06 00:56:41;;;;;;;9.77;1.63;;;3.30;99.90;;;;;;5023415;28;20128;-83
2021/04/06 00:59:10;;;;;;;18.65;2.08;;;3.20;99.90;;;;;;5018090;28;20145;-84
2021/04/06 01:01:48;;;;;;;10.95;1.73;;;3.10;99.90;;;;;;5021130;28;20049;-84
2021/04/06 01:04:18;;;;;;;8.52;2.55;;;3.10;99.90;;;;;;5021221;28;20475;-84
2021/04/06 01:07:13;;;;;;;5.55;1.23;;;3.10;99.90;;;;;;5024458;28;20818;-84
2021/04/06 01:09:45;;;;;;;;;;;3.10;99.90;;;;;;5021998;28;20087;-84
2021/04/06 01:12:17;;;;;;;6.35;1.50;;;3.10;99.90;;;;;;5021496;28;20024;-84
2021/04/06 01:14:45;;;;;;;11.38;2.28;;;3.00;99.90;;;;;;5039638;28;20127;-83
2021/04/06 01:17:18;;;;;;;9.68;1.67;;;3.00;99.90;;;;;;5019412;28;20053;-83
2021/04/06 01:19:45;;;;;;;17.65;2.22;;;3.00;99.90;;;;;;5031060;28;20472;-84
2021/04/06 01:22:14;;;;;;;12.65;2.20;;;3.00;99.90;;;;;;5024730;28;20064;-84
2021/04/06 01:24:42;;;;;;;14.18;2.45;;;3.10;99.90;;;;;;5022811;28;20037;-84
2021/04/06 01:27:12;;;;;;;10.00;1.95;;;3.20;99.90;;;;;;5038772;28;20055;-83
2021/04/06 01:29:40;;;;;;;15.38;2.63;;;3.20;99.90;;;;;;5028872;28;20049;-83
2021/04/06 01:32:07;;;;;;;11.75;1.67;;;3.20;99.90;;;;;;5040275;28;20105;-83
2021/04/06 01:34:34;;;;;;;13.48;1.67;;;3.10;99.90;;;;;;5020375;28;20485;-84
2021/04/06 01:37:00;;;;;;;11.27;1.73;;;3.10;99.90;;;;;;5038966;28;20143;-83
2021/04/06 01:39:29;;;;;;;15.88;2.10;;;3.00;99.90;;;;;;5022667;28;20036;-84
2021/04/06 01:42:00;;;;;;;13.40;2.13;;;2.90;99.90;;;;;;5041272;28;20155;-83
2021/04/06 01:44:27;;;;;;;15.90;1.80;;;2.90;99.90;;;;;;5022909;28;20052;-83
2021/04/06 01:46:56;;;;;;;8.20;1.20;;;2.80;99.90;;;;;;5038982;28;20053;-83
2021/04/06 01:49:24;;;;;;;22.13;3.50;;;2.90;99.90;;;;;;5020469;28;20095;-82
2021/04/06 01:51:54;;;;;;;15.80;3.00;;;2.80;99.90;;;;;;5023396;28;20127;-83
2021/04/06 01:54:21;;;;;;;20.77;2.40;;;2.90;99.90;;;;;;5015546;28;20052;-83
2021/04/06 01:56:56;;;;;;;12.38;2.58;;;2.90;99.90;;;;;;5024531;28;20326;-83
2021/04/06 01:59:30;;;;;;;27.42;2.70;;;2.90;99.90;;;;;;5024207;28;20539;-83
2021/04/06 02:01:59;;;;;;;;;;;2.90;99.90;;;;;;5026863;28;20139;-83
2021/04/06 02:04:27;;;;;;;10.02;1.75;;;2.90;99.90;;;;;;5024271;28;19924;-83
2021/04/06 02:06:57;;;;;;;9.43;2.80;;;2.90;99.90;;;;;;5030071;28;20135;-83
2021/04/06 02:09:23;;;;;;;10.20;1.73;;;3.00;99.90;;;;;;5040251;28;20080;-83
2021/04/06 02:11:49;;;;;;;15.20;2.30;;;3.00;99.90;;;;;;5023657;28;20087;-83
2021/04/06 02:14:24;;;;;;;29.35;2.47;;;3.00;99.90;;;;;;5023927;28;20049;-83
2021/04/06 02:17:00;;;;;;;12.18;2.25;;;3.00;99.90;;;;;;5027903;28;20484;-83
2021/04/06 02:19:36;;;;;;;11.68;2.15;;;3.10;99.90;;;;;;5028632;28;20399;-84
2021/04/06 02:22:11;;;;;;;19.70;1.98;;;3.20;99.90;;;;;;5021726;28;20136;-83
2021/04/06 02:24:42;;;;;;;15.35;2.47;;;3.20;99.90;;;;;;5021771;28;20046;-83
2021/04/06 02:27:18;;;;;;;13.40;1.80;;;3.30;99.90;;;;;;5026494;28;22026;-83
2021/04/06 02:29:47;;;;;;;14.85;1.52;;;3.30;99.90;;;;;;5021661;28;20047;-84
2021/04/06 02:32:18;;;;;;;17.45;2.85;;;3.30;99.90;;;;;;5038467;28;20568;-83
2021/04/06 02:34:48;;;;;;;10.10;1.40;;;3.30;99.90;;;;;;5022642;28;20088;-84
2021/04/06 02:37:25;;;;;;;13.07;1.90;;;3.30;99.90;;;;;;5019358;28;20419;-84
2021/04/06 02:39:54;;;;;;;7.18;1.40;;;3.30;99.90;;;;;;5021595;28;20059;-84
2021/04/06 02:42:38;;;;;;;14.80;2.15;;;3.20;99.90;;;;;;5022401;28;20052;-83
2021/04/06 02:45:08;;;;;;;10.57;2.05;;;3.20;99.90;;;;;;5042386;28;20143;-83
2021/04/06 02:47:38;;;;;;;21.27;2.70;;;3.10;99.90;;;;;;5024477;28;20042;-83
2021/04/06 02:50:07;;;;;;;12.88;2.30;;;3.10;99.90;;;;;;5024131;28;20061;-83
2021/04/06 02:52:35;;;;;;;11.32;1.88;;;3.10;99.90;;;;;;5024054;28;20117;-83
2021/04/06 02:55:04;;;;;;;14.32;1.40;;;3.10;99.90;;;;;;5024563;28;20073;-83
2021/04/06 02:57:30;;;;;;;7.80;2.03;;;3.10;99.90;;;;;;5019498;28;20055;-83
2021/04/06 02:59:57;;;;;;;8.57;1.20;;;3.00;99.90;;;;;;5039252;28;20099;-83
2021/04/06 03:02:23;;;;;;;6.50;0.90;;;2.80;99.90;;;;;;5024600;28;20049;-83
2021/04/06 03:04:50;;;;;;;7.25;1.08;;;2.80;99.90;;;;;;5026439;28;20427;-84
2021/04/06 03:07:24;;;;;;;7.72;0.70;;;2.60;99.90;;;;;;5022704;28;20043;-84
2021/04/06 03:09:56;;;;;;;6.97;0.70;;;2.40;99.90;;;;;;5041799;28;20134;-84
2021/04/06 03:12:31;;;;;;;6.03;1.38;;;2.30;99.90;;;;;;5026555;28;20499;-84
2021/04/06 03:15:03;;;;;;;8.00;1.02;;;2.10;99.90;;;;;;5026074;28;20041;-84
2021/04/06 03:17:49;;;;;;;5.78;1.30;;;2.00;99.90;;;;;;5024094;28;20045;-84
2021/04/06 03:20:19;;;;;;;8.52;0.90;;;1.90;99.90;;;;;;5039039;28;20065;-84
2021/04/06 03:22:47;;;;;;;5.35;1.05;;;1.90;99.90;;;;;;5023227;28;20049;-84
2021/04/06 03:25:14;;;;;;;18.00;1.95;;;1.90;99.90;;;;;;5038351;28;20068;-83
2021/04/06 03:27:44;;;;;;;12.20;1.27;;;2.00;99.90;;;;;;5022611;28;20574;-84
2021/04/06 03:30:12;;;;;;;14.20;2.15;;;2.10;99.90;;;;;;5025338;28;20049;-83
2021/04/06 03:32:40;;;;;;;4.85;1.00;;;2.10;99.90;;;;;;5039968;28;20404;-83
2021/04/06 03:35:07;;;;;;;7.53;1.52;;;2.20;99.90;;;;;;5027541;28;20073;-83
2021/04/06 03:37:36;;;;;;;5.55;1.45;;;2.30;99.90;;;;;;5023013;28;20404;-82
2021/04/06 03:40:04;;;;;;;7.32;1.10;;;2.40;99.90;;;;;;5023361;28;20133;-83
2021/04/06 03:42:31;;;;;;;4.75;0.80;;;2.40;99.90;;;;;;5023014;28;20061;-84
2021/04/06 03:45:08;;;;;;;7.03;1.65;;;2.50;99.90;;;;;;5024033;28;20130;-83
2021/04/06 03:47:53;;;;;;;7.47;2.50;;;2.40;99.90;;;;;;5022608;28;20061;-83
2021/04/06 03:50:40;;;;;;;5.18;0.60;;;2.40;99.90;;;;;;5022239;28;20080;-84
2021/04/06 03:53:09;;;;;;;11.30;1.50;;;2.40;99.90;;;;;;5028568;28;20049;-83
2021/04/06 03:55:38;;;;;;;13.52;1.10;;;2.40;99.90;;;;;;5041584;28;20422;-83
2021/04/06 03:58:13;;;;;;;17.70;1.50;;;2.40;99.90;;;;;;5019262;28;20481;-83
2021/04/06 04:00:40;;;;;;;9.10;1.60;;;2.40;99.90;;;;;;5011310;28;20146;-83
2021/04/06 04:03:07;;;;;;;10.90;1.92;;;2.50;99.90;;;;;;5009002;28;20143;-83
2021/04/06 04:05:37;;;;;;;11.18;2.05;;;2.50;99.90;;;;;;5028808;28;20073;-83
2021/04/06 04:08:04;;;;;;;12.27;1.38;;;2.50;99.90;;;;;;5029073;28;20037;-83
2021/04/06 04:10:30;;;;;;;9.70;1.85;;;2.50;99.90;;;;;;5023435;28;20069;-83
2021/04/06 04:12:56;;;;;;;23.60;3.00;;;2.50;99.90;;;;;;5024066;28;20110;-83
2021/04/06 04:15:22;;;;;;;15.15;1.58;;;2.50;99.90;;;;;;5039277;28;20045;-83
2021/04/06 04:17:50;;;;;;;11.63;1.65;;;2.40;99.90;;;;;;5011368;28;20045;-83
2021/04/06 04:20:21;;;;;;;15.23;1.52;;;2.40;99.90;;;;;;5018232;28;20060;-83
2021/04/06 04:22:48;;;;;;;12.18;2.30;;;2.30;99.90;;;;;;5039723;28;20065;-83
2021/04/06 04:25:16;;;;;;;13.50;1.98;;;2.20;99.90;;;;;;5040921;28;20049;-83
2021/04/06 04:27:44;;;;;;;18.95;2.05;;;2.20;99.90;;;;;;5021865;28;20075;-84
2021/04/06 04:30:11;;;;;;;9.00;1.25;;;2.20;99.90;;;;;;5027073;28;20981;-84
2021/04/06 04:32:39;;;;;;;19.60;3.20;;;2.10;99.90;;;;;;5020931;28;20045;-84
2021/04/06 04:35:08;;;;;;;14.32;1.75;;;2.10;99.90;;;;;;5021702;28;20076;-84
2021/04/06 04:37:34;;;;;;;12.18;1.38;;;2.10;99.90;;;;;;5026682;28;20040;-83
2021/04/06 04:40:01;;;;;;;11.05;1.67;;;2.10;99.90;;;;;;5042098;28;20052;-84
2021/04/06 04:42:31;;;;;;;7.15;1.33;;;2.10;99.90;;;;;;5022387;28;20078;-84
2021/04/06 04:44:58;;;;;;;9.93;1.35;;;2.00;99.90;;;;;;5018374;28;20041;-84
2021/04/06 04:47:24;;;;;;;5.90;1.13;;;2.00;99.90;;;;;;5021849;28;20144;-84
2021/04/06 04:49:50;;;;;;;11.85;1.38;;;2.00;99.90;;;;;;5027617;28;20057;-83
2021/04/06 04:52:16;;;;;;;4.78;0.85;;;2.00;99.90;;;;;;5027281;28;20056;-84
2021/04/06 04:54:43;;;;;;;5.53;0.77;;;2.00;99.90;;;;;;5023252;28;20045;-83
2021/04/06 04:57:09;;;;;;;4.35;1.67;;;2.00;99.90;;;;;;5041516;28;20045;-83
2021/04/06 04:59:35;;;;;;;10.30;1.52;;;1.90;99.90;;;;;;5022014;28;20045;-84
2021/04/06 05:02:02;;;;;;;11.77;1.27;;;1.90;99.90;;;;;;5027113;28;20239;-84
2021/04/06 05:04:28;;;;;;;9.27;1.08;;;1.90;99.90;;;;;;5025922;28;20358;-83
2021/04/06 05:06:55;;;;;;;9.25;1.70;;;1.90;99.90;;;;;;5030678;28;20525;-84
2021/04/06 05:09:21;;;;;;;8.18;2.08;;;1.80;99.90;;;;;;5019000;28;20049;-84
2021/04/06 05:11:47;;;;;;;9.23;1.27;;;1.80;99.90;;;;;;5024934;28;20050;-83
2021/04/06 05:14:13;;;;;;;9.20;1.65;;;1.70;99.90;;;;;;5023528;28;20054;-83
2021/04/06 05:16:39;;;;;;;4.30;0.98;;;1.70;99.90;;;;;;5045240;28;20053;-84
2021/04/06 05:19:06;;;;;;;4.72;1.00;;;1.70;99.90;;;;;;5026663;28;20072;-84
2021/04/06 05:21:32;;;;;;;5.38;0.98;;;1.70;99.90;;;;;;5023735;28;20100;-84
2021/04/06 05:23:58;;;;;;;16.73;1.13;;;1.80;99.90;;;;;;5023705;28;20067;-84
2021/04/06 05:26:24;;;;;;;11.48;1.35;;;1.90;99.90;;;;;;5024398;28;20033;-84
2021/04/06 05:28:50;;;;;;;7.70;1.58;;;1.90;99.90;;;;;;5025918;28;20059;-84
2021/04/06 05:31:16;;;;;;;11.70;1.33;;;1.90;99.90;;;;;;5023054;28;20076;-84
2021/04/06 05:33:43;;;;;;;6.45;1.92;;;2.00;99.90;;;;;;5029362;28;20095;-84
2021/04/06 05:36:09;;;;;;;16.60;1.73;;;2.00;99.90;;;;;;5024905;28;20488;-84
2021/04/06 05:38:35;;;;;;;11.13;1.90;;;2.20;99.90;;;;;;5022796;28;20073;-81
2021/04/06 05:41:02;;;;;;;7.82;1.42;;;2.40;99.90;;;;;;5038284;28;20049;-81
2021/04/06 05:43:28;;;;;;;10.95;1.90;;;2.60;99.90;;;;;;5017745;28;22222;-81
2021/04/06 05:45:55;;;;;;;10.98;1.20;;;2.70;99.90;;;;;;5020882;28;20128;-80
2021/04/06 05:48:23;;;;;;;5.18;1.20;;;2.80;99.90;;;;;;5020235;28;20053;-81
2021/04/06 05:50:53;;;;;;;6.15;0.70;;;2.70;99.90;;;;;;5023220;28;20091;-82
2021/04/06 05:53:21;;;;;;;5.13;0.70;;;2.60;99.90;;;;;;5025190;28;20045;-83
2021/04/06 05:55:49;;;;;;;6.45;1.02;;;2.50;99.90;;;;;;5022305;28;20061;-85
2021/04/06 05:58:16;;;;;;;6.18;1.67;;;2.50;99.90;;;;;;5037723;28;20069;-83
2021/04/06 06:00:42;;;;;;;8.10;1.40;;;2.40;99.90;;;;;;5024482;28;20116;-83
2021/04/06 06:03:09;;;;;;;12.77;1.63;;;2.40;99.90;;;;;;5025891;28;20057;-82
2021/04/06 06:05:36;;;;;;;7.88;1.50;;;2.40;99.90;;;;;;5025327;28;20122;-83
2021/04/06 06:08:08;;;;;;;7.97;2.15;;;2.30;99.90;;;;;;5016192;28;20108;-83
2021/04/06 06:10:35;;;;;;;8.07;1.58;;;2.30;99.90;;;;;;5004937;28;20057;-83
2021/04/06 06:13:24;;;;;;;17.88;1.30;;;2.40;99.90;;;;;;5036354;28;20053;-85
2021/04/06 06:16:10;;;;;;;6.68;1.48;;;2.50;99.90;;;;;;5026214;28;20180;-86
2021/04/06 06:18:59;;;;;;;4.80;1.23;;;2.60;99.90;;;;;;5014622;28;20085;-84
2021/04/06 06:22:10;;;;;;;8.68;0.77;;;2.60;99.90;;;;;;5011745;28;20510;-85
2021/04/06 06:24:39;;;;;;;9.63;1.08;;;2.70;99.90;;;;;;4937796;28;20070;-85
2021/04/06 06:27:36;;;;;;;9.75;2.05;;;2.60;99.90;;;;;;4946506;28;20115;-84
2021/04/06 06:30:26;;;;;;;4.78;1.20;;;2.70;99.90;;;;;;5003794;28;20076;-85
2021/04/06 06:33:15;;;;;;;12.02;1.30;;;3.00;99.90;;;;;;5038139;28;20144;-86
2021/04/06 06:35:44;;;;;;;13.07;1.48;;;3.40;99.90;;;;;;5009197;28;20051;-86
2021/04/06 06:38:20;;;;;;;6.68;0.77;;;3.60;99.90;;;;;;5020180;28;20052;-83
2021/04/06 06:40:49;;;;;;;10.88;2.78;;;3.70;99.90;;;;;;5039643;28;20105;-84
2021/04/06 06:43:18;;;;;;;7.63;1.27;;;3.70;99.90;;;;;;5024872;28;20142;-82
2021/04/06 06:45:47;;;;;;;9.55;1.10;;;3.90;99.90;;;;;;5011026;28;20497;-83
2021/04/06 06:48:34;;;;;;;3.95;0.80;;;4.10;99.90;;;;;;5039067;28;20109;-83
2021/04/06 06:51:03;;;;;;;9.85;1.17;;;4.40;99.90;;;;;;5009698;28;20064;-82
2021/04/06 06:53:31;;;;;;;5.30;0.93;;;4.70;99.90;;;;;;5037990;28;20256;-85
2021/04/06 06:55:57;;;;;;;3.80;0.93;;;4.80;99.90;;;;;;5021701;28;20049;-81
2021/04/06 06:58:32;;;;;;;7.13;1.30;;;4.80;99.90;;;;;;5024367;28;20048;-80
2021/04/06 07:01:00;;;;;;;8.10;1.30;;;4.70;99.90;;;;;;5034890;28;20045;-81
2021/04/06 07:03:27;;;;;;;8.35;1.58;;;4.50;99.90;;;;;;5016513;28;20092;-81
2021/04/06 07:05:54;;;;;;;10.02;1.42;;;4.30;99.90;;;;;;5018035;28;20054;-82
2021/04/06 07:08:32;;;;;;;14.95;1.85;;;4.30;99.90;;;;;;5019275;28;21206;-83
2021/04/06 07:11:00;;;;;;;8.77;1.45;;;4.60;99.90;;;;;;5023725;28;20070;-82
2021/04/06 07:13:31;;;;;;;6.55;1.25;;;4.70;99.90;;;;;;5018904;28;20053;-81
2021/04/06 07:15:59;;;;;;;7.80;1.92;;;4.90;99.90;;;;;;5018579;28;20553;-81
2021/04/06 07:18:27;;;;;;;3.67;0.90;;;4.80;99.90;;;;;;5021397;28;20636;-85
2021/04/06 07:21:03;;;;;;;6.43;1.02;;;4.70;99.90;;;;;;5018928;28;20044;-82
2021/04/06 07:23:36;;;;;;;;;;;4.70;99.90;;;;;;5015546;28;20599;-82
2021/04/06 07:26:16;;;;;;;12.40;1.42;;;4.80;99.90;;;;;;5016309;28;19925;-82
2021/04/06 07:28:42;;;;;;;9.27;1.35;;;5.00;99.90;;;;;;5013915;28;20060;-81
2021/04/06 07:31:10;;;;;;;9.27;1.50;;;5.40;99.90;;;;;;5012255;28;20113;-80
2021/04/06 07:33:39;;;;;;;5.00;1.45;;;5.80;99.90;;;;;;5015923;28;20102;-80
2021/04/06 07:36:09;;;;;;;3.78;0.85;;;5.90;99.90;;;;;;5018049;28;20046;-82
2021/04/06 07:38:50;;;;;;;5.03;1.10;;;5.50;99.90;;;;;;5024098;28;20501;-83
2021/04/06 07:41:19;;;;;;;4.32;0.98;;;5.20;99.90;;;;;;5008626;28;20073;-81
2021/04/06 07:43:46;;;;;;;4.15;1.05;;;5.00;99.90;;;;;;5017562;28;20053;-82
2021/04/06 07:46:34;;;;;;;4.43;0.77;;;5.00;99.90;;;;;;5018688;28;20132;-82
2021/04/06 07:49:06;;;;;;;7.78;1.35;;;5.10;99.90;;;;;;5032191;28;20057;-81
2021/04/06 07:51:48;;;;;;;10.77;1.33;;;5.00;99.90;;;;;;5020019;28;20053;-83
2021/04/06 07:54:16;;;;;;;7.22;1.33;;;4.90;99.90;;;;;;5020293;28;20520;-82
2021/04/06 07:56:43;;;;;;;2.58;0.90;;;4.70;99.90;;;;;;5010848;28;20048;-82
2021/04/06 07:59:30;;;;;;;5.03;1.45;;;4.60;99.90;;;;;;5018854;28;20080;-83
2021/04/06 08:01:56;;;;;;;10.25;1.35;;;4.60;99.90;;;;;;5010005;28;20136;-82
2021/04/06 08:04:24;;;;;;;13.68;2.15;;;4.70;99.90;;;;;;5014956;28;20050;-84
2021/04/06 08:06:52;;;;;;;5.68;1.27;;;4.80;99.90;;;;;;5018479;28;20681;-82
2021/04/06 08:09:35;;;;;;;14.75;3.10;;;4.90;99.90;;;;;;5012899;28;20045;-80
2021/04/06 08:12:11;;;;;;;10.65;1.33;;;4.90;99.90;;;;;;5014239;28;20060;-82
2021/04/06 08:14:42;;;;;;;12.00;2.15;;;5.00;99.90;;;;;;5013821;28;20168;-80
2021/04/06 08:17:23;;;;;;;6.05;1.25;;;5.10;99.90;;;;;;5020098;28;20049;-81
2021/04/06 08:19:54;;;;;;;9.10;1.20;;;5.20;99.90;;;;;;5021912;28;20111;-84
2021/04/06 08:22:25;;;;;;;8.90;1.40;;;5.20;99.90;;;;;;5019666;28;20149;-81
2021/04/06 08:25:14;;;;;;;12.02;1.77;;;5.40;99.90;;;;;;5017206;28;20041;-80
2021/04/06 08:27:51;;;;;;;11.70;1.20;;;5.70;99.90;;;;;;5033773;28;20167;-80
2021/04/06 08:30:24;;;;;;;9.07;1.55;;;5.80;99.90;;;;;;5018861;28;20057;-80
2021/04/06 08:32:57;;;;;;;7.28;1.30;;;6.10;99.90;;;;;;5017352;28;20033;-80
2021/04/06 08:35:45;;;;;;;12.20;1.58;;;6.60;99.90;;;;;;5021646;28;20045;-83
2021/04/06 08:38:20;;;;;;;8.18;1.30;;;6.90;99.90;;;;;;5011934;28;20404;-83
2021/04/06 08:41:06;;;;;;;7.85;1.58;;;6.80;99.90;;;;;;5017847;28;20076;-81
2021/04/06 08:43:35;;;;;;;3.72;1.20;;;6.60;99.90;;;;;;5018833;28;20049;-82
2021/04/06 08:46:05;;;;;;;5.68;1.42;;;6.40;99.90;;;;;;5026954;28;20144;-82
2021/04/06 08:48:52;;;;;;;6.05;1.20;;;6.40;99.90;;;;;;5017516;28;20177;-82
2021/04/06 08:51:24;;;;;;;5.10;1.00;;;6.50;99.90;;;;;;5022134;28;20144;-82
2021/04/06 08:53:53;;;;;;;6.20;0.63;;;6.60;99.90;;;;;;5021138;28;20050;-82
2021/04/06 08:56:23;;;;;;;7.80;1.20;;;6.80;99.50;;;;;;5020935;28;20064;-82
2021/04/06 08:58:49;;;;;;;5.43;0.82;;;6.70;99.90;;;;;;5023587;28;20080;-82
2021/04/06 09:01:16;;;;;;;8.25;0.82;;;6.60;99.90;;;;;;5022267;28;20049;-82
2021/04/06 09:03:42;;;;;;;5.28;1.40;;;6.60;99.90;;;;;;5020065;28;20117;-82
2021/04/06 09:06:13;;;;;;;5.90;0.90;;;6.80;99.70;;;;;;5026134;28;20048;-82
2021/04/06 09:08:55;;;;;;;7.38;1.33;;;7.00;99.90;;;;;;5021010;28;20059;-82
2021/04/06 09:11:25;;;;;;;7.30;0.75;;;7.40;99.90;;;;;;5039868;28;20500;-82
2021/04/06 09:13:53;;;;;;;10.27;1.67;;;7.60;99.90;;;;;;5019047;28;20053;-81
2021/04/06 09:16:37;;;;;;;8.13;1.17;;;7.60;99.90;;;;;;5028388;28;20483;-82
2021/04/06 09:19:08;;;;;;;5.88;1.63;;;7.60;99.90;;;;;;5038371;28;20057;-81
2021/04/06 09:21:35;;;;;;;6.25;0.82;;;7.60;99.90;;;;;;5023694;28;20060;-82
2021/04/06 09:24:05;;;;;;;8.40;1.10;;;7.60;99.90;;;;;;5027504;28;20049;-82
2021/04/06 09:26:31;;;;;;;3.90;1.00;;;7.60;99.90;;;;;;5023058;28;20144;-82
2021/04/06 09:29:11;;;;;;;9.77;1.17;;;7.60;99.90;;;;;;5040019;28;20049;-82
2021/04/06 09:31:58;;;;;;;7.60;1.13;;;7.60;99.90;;;;;;5022369;28;20057;-82
2021/04/06 09:34:30;;;;;;;4.75;1.58;;;7.80;99.90;;;;;;5020990;28;20048;-82
2021/04/06 09:37:00;;;;;;;4.57;1.00;;;8.10;99.90;;;;;;5023806;28;20061;-82
2021/04/06 09:39:28;;;;;;;8.20;1.42;;;8.20;99.80;;;;;;5023896;28;20071;-82
2021/04/06 09:41:55;;;;;;;6.80;1.10;;;8.30;98.50;;;;;;5022519;28;20083;-82
2021/04/06 09:44:31;;;;;;;8.00;1.35;;;8.40;97.00;;;;;;5039090;28;20055;-82
2021/04/06 09:47:01;;;;;;;9.18;2.45;;;8.40;98.70;;;;;;5027928;28;20089;-82
2021/04/06 09:49:34;;;;;;;5.35;0.95;;;8.50;97.50;;;;;;5024439;28;20044;-81
2021/04/06 09:52:03;;;;;;;;;;;8.60;95.60;;;;;;5019146;28;20028;-81
2021/04/06 09:54:34;;;;;;;6.07;1.52;;;8.70;94.20;;;;;;5024539;28;20014;-81
2021/04/06 09:57:09;;;;;;;10.15;1.38;;;8.80;94.00;;;;;;5035866;28;20060;-82
2021/04/06 09:59:39;;;;;;;8.52;1.00;;;9.00;92.10;;;;;;5023368;28;20057;-82
2021/04/06 10:02:15;;;;;;;7.88;1.27;;;9.20;91.80;;;;;;5024320;28;20049;-82
2021/04/06 10:04:46;;;;;;;3.47;0.40;;;9.50;92.50;;;;;;5024090;28;20302;-82
2021/04/06 10:08:04;;;;;;;4.68;0.70;;;9.50;88.10;;;;;;5133582;27;19919;-82
2021/04/06 10:10:34;;;;;;;5.13;0.88;;;9.00;91.10;;;;;;5125130;27;20051;-82
2021/04/06 10:13:01;;;;;;;1.98;0.90;;;8.50;91.90;;;;;;5122556;27;20050;-82
2021/04/06 10:15:31;;;;;;;6.25;0.70;;;8.00;92.10;;;;;;5123327;27;20151;-82
2021/04/06 10:18:11;;;;;;;5.05;0.95;;;7.80;94.50;;;;;;5120570;27;20058;-82
2021/04/06 10:20:39;;;;;;;11.00;1.55;;;8.00;95.50;;;;;;5122430;27;20497;-82
2021/04/06 10:23:05;;;;;;;6.43;0.80;;;8.40;95.60;;;;;;5123862;27;20554;-82
2021/04/06 10:25:41;;;;;;;6.20;0.90;;;8.80;95.20;;;;;;5121924;27;20057;-81
2021/04/06 10:28:19;;;;;;;4.70;0.50;;;9.30;92.70;;;;;;5121751;27;20043;-82
2021/04/06 10:30:55;;;;;;;1.45;0.50;;;9.10;90.60;;;;;;5122185;27;20074;-82
2021/04/06 10:33:28;;;;;;;4.82;0.63;;;8.60;90.60;;;;;;5125700;27;20118;-82
2021/04/06 10:35:58;;;;;;;6.50;0.57;;;8.00;91.10;;;;;;5120941;27;20047;-82
2021/04/06 10:38:29;;;;;;;3.45;0.70;;;7.50;92.10;;;;;;5123269;27;20068;-81
2021/04/06 10:41:11;;;;;;;6.53;1.42;;;7.20;94.40;;;;;;5115085;27;20070;-81
2021/04/06 10:43:39;;;;;;;3.70;0.82;;;7.20;95.40;;;;;;5107508;27;20055;-82
2021/04/06 10:46:10;;;;;;;2.60;0.60;;;7.40;94.70;;;;;;5131365;27;20410;-81
2021/04/06 10:48:39;;;;;;;9.55;0.88;;;7.60;94.60;;;;;;5122086;27;20142;-81
2021/04/06 10:51:24;;;;;;;1.58;0.65;;;7.90;92.20;;;;;;5139842;27;20112;-82
2021/04/06 10:54:01;;;;;;;5.07;0.93;;;8.20;94.90;;;;;;5123775;27;20058;-82
2021/04/06 10:56:31;;;;;;;3.90;0.70;;;8.70;94.60;;;;;;5131147;27;20134;-82
2021/04/06 10:59:06;;;;;;;6.93;0.75;;;9.10;93.50;;;;;;5132592;27;20123;-82
2021/04/06 11:01:41;;;;;;;1.63;0.68;;;9.40;95.40;;;;;;5132472;27;20123;-82
2021/04/06 11:04:11;;;;;;;2.97;0.93;;;9.90;92.60;;;;;;5123387;27;20040;-82
2021/04/06 11:06:40;;;;;;;6.95;1.00;;;10.10;87.90;;;;;;5121738;27;20213;-82
2021/04/06 11:09:19;;;;;;;5.13;0.88;;;10.00;92.20;;;;;;5124082;27;20126;-82
2021/04/06 11:11:52;;;;;;;5.90;0.90;;;9.70;91.20;;;;;;5134160;27;20059;-82
2021/04/06 11:14:23;;;;;;;8.95;1.33;;;9.30;92.70;;;;;;5124699;27;20052;-82
2021/04/06 11:16:51;;;;;;;5.47;0.80;;;9.20;94.70;;;;;;5110773;27;20117;-82
2021/04/06 11:19:29;;;;;;;7.60;0.73;;;9.00;96.00;;;;;;5070836;28;20136;-81
2021/04/06 11:21:58;;;;;;;8.40;1.80;;;9.20;94.10;;;;;;5106148;27;20119;-81
2021/04/06 11:24:28;;;;;;;7.80;1.00;;;9.40;95.30;;;;;;5108867;27;20048;-83
2021/04/06 11:26:56;;;;;;;11.82;2.45;;;9.70;91.20;;;;;;5107086;28;20051;-82
2021/04/06 11:29:26;;;;;;;6.53;1.05;;;9.90;88.10;;;;;;5119635;27;20134;-82
2021/04/06 11:31:57;;;;;;;5.05;0.95;;;10.00;88.00;;;;;;5107920;28;20062;-83
2021/04/06 11:34:25;;;;;;;3.83;0.70;;;10.10;83.90;;;;;;5108561;27;20055;-82
2021/04/06 11:36:51;;;;;;;5.65;0.80;;;10.30;80.80;;;;;;5101329;28;20111;-82
2021/04/06 11:39:20;;;;;;;2.97;0.65;;;10.40;76.00;;;;;;5101844;27;20048;-81
2021/04/06 11:41:48;;;;;;;4.93;1.00;;;10.40;78.50;;;;;;5117563;27;20051;-82
2021/04/06 11:44:16;;;;;;;5.82;1.13;;;10.70;77.20;;;;;;5109303;28;20180;-83
2021/04/06 11:46:44;;;;;;;8.73;1.35;;;10.60;76.70;;;;;;5098883;28;20138;-82
2021/04/06 11:49:12;;;;;;;7.60;1.05;;;10.50;76.70;;;;;;5106882;27;20059;-82
2021/04/06 11:51:40;;;;;;;5.50;0.82;;;10.20;77.60;;;;;;5111764;27;20075;-84
2021/04/06 11:54:09;;;;;;;5.30;1.42;;;9.80;77.20;;;;;;5103172;27;20040;-81
2021/04/06 11:56:35;;;;;;;7.65;0.63;;;9.70;80.00;;;;;;5098734;28;20055;-81
2021/04/06 11:59:03;;;;;;;1.40;0.30;;;9.80;77.70;;;;;;5103577;28;20054;-81
2021/04/06 12:01:31;;;;;;;4.38;1.10;;;10.00;78.00;;;;;;5105715;27;20047;-82
2021/04/06 12:03:58;;;;;;;2.92;0.55;;;10.30;75.90;;;;;;5104595;27;20469;-81
2021/04/06 12:06:25;;;;;;;2.33;0.47;;;10.50;73.70;;;;;;5090771;28;20044;-81
2021/04/06 12:08:52;;;;;;;4.13;1.42;;;10.70;74.30;;;;;;5106557;28;20090;-82
2021/04/06 12:11:20;;;;;;;4.10;1.35;;;10.90;77.20;;;;;;5082077;28;20109;-82
2021/04/06 12:13:47;;;;;;;5.97;0.70;;;11.20;71.00;;;;;;5088650;28;20115;-82
2021/04/06 12:16:14;;;;;;;6.28;0.93;;;11.10;67.80;;;;;;5100574;28;20040;-82
2021/04/06 12:18:40;;;;;;;5.97;1.45;;;11.20;69.80;;;;;;5106521;27;20048;-82
2021/04/06 12:21:09;;;;;;;6.82;1.05;;;11.60;69.20;;;;;;5088342;27;20115;-83
2021/04/06 12:23:36;;;;;;;5.80;1.17;;;11.80;67.80;;;;;;5097764;28;20071;-82
2021/04/06 12:26:04;;;;;;;5.15;1.20;;;11.50;68.20;;;;;;5108238;28;20127;-83
2021/04/06 12:28:30;;;;;;;4.53;0.65;;;10.90;69.30;;;;;;5100682;28;20551;-82
2021/04/06 12:30:56;;;;;;;3.53;0.80;;;10.50;73.60;;;;;;5105831;27;20534;-84
2021/04/06 12:33:23;;;;;;;3.30;0.77;;;10.90;75.10;;;;;;5104029;28;20051;-83
2021/04/06 12:35:49;;;;;;;5.32;0.70;;;11.80;77.90;;;;;;5108700;28;20048;-83
2021/04/06 12:38:15;;;;;;;4.72;0.90;;;13.20;70.30;;;;;;5102496;28;20052;-81
2021/04/06 12:40:42;;;;;;;4.78;0.90;;;14.00;64.70;;;;;;5088460;28;20047;-83
2021/04/06 12:43:09;;;;;;;6.60;1.10;;;14.00;61.90;;;;;;5077871;28;20073;-82
2021/04/06 12:45:36;;;;;;;5.10;0.98;;;13.90;62.70;;;;;;5108480;28;20110;-82
2021/04/06 12:48:03;;;;;;;5.15;0.80;;;13.50;62.20;;;;;;5103365;28;20050;-81
2021/04/06 12:50:29;;;;;;;7.43;1.25;;;12.30;64.20;;;;;;5098066;28;20058;-83
2021/04/06 12:52:56;;;;;;;18.73;1.80;;;10.80;69.50;;;;;;5102407;27;20052;-83
2021/04/06 12:55:23;;;;;;;8.35;1.20;;;9.70;74.60;;;;;;5103590;27;20055;-82
2021/04/06 12:57:49;;;;;;;6.47;1.50;;;9.00;79.60;;;;;;5107702;28;20070;-81
2021/04/06 13:00:16;;;;;;;13.02;2.35;;;8.50;86.80;;;;;;5102089;28;20075;-82
2021/04/06 13:02:42;;;;;;;13.07;1.17;;;8.30;90.80;;;;;;5106187;27;20066;-82
2021/04/06 13:05:10;;;;;;;13.88;1.80;;;8.30;92.70;;;;;;5106957;28;20158;-82
2021/04/06 13:07:37;;;;;;;10.35;1.48;;;8.20;95.50;;;;;;5105297;28;20503;-82
2021/04/06 13:10:04;;;;;;;7.57;1.48;;;8.60;97.80;;;;;;5106573;28;20059;-82
2021/04/06 13:12:30;;;;;;;9.18;1.25;;;9.50;93.70;;;;;;5105955;27;20104;-82